sensor_id;sensor_type;location;lat;lon;timestamp;P1;durP1;ratioP1;P2;durP2;ratioP2
71464;SDS011;59274;49.874;9.154;2023-03-07T00:02:21;22.10;;;9.67;;
71464;SDS011;59274;49.874;9.154;2023-03-07T00:04:47;23.90;;;10.10;;
71464;SDS011;59274;49.874;9.154;2023-03-07T00:07:12;20.67;;;9.07;;
71464;SDS011;59274;49.874;9.154;2023-03-07T00:09:39;21.13;;;9.30;;
71464;SDS011;59274;49.874;9.154;2023-03-07T00:12:05;21.43;;;9.20;;
71464;SDS011;59274;49.874;9.154;2023-03-07T00:14:31;24.60;;;9.38;;
71464;SDS011;59274;49.874;9.154;2023-03-07T00:16:57;22.98;;;9.80;;
71464;SDS011;59274;49.874;9.154;2023-03-07T00:19:22;22.53;;;9.03;;
71464;SDS011;59274;49.874;9.154;2023-03-07T00:21:48;21.70;;;8.60;;
71464;SDS011;59274;49.874;9.154;2023-03-07T00:24:13;22.87;;;8.50;;
71464;SDS011;59274;49.874;9.154;2023-03-07T00:26:39;21.73;;;9.13;;
71464;SDS011;59274;49.874;9.154;2023-03-07T00:29:05;20.70;;;8.37;;
71464;SDS011;59274;49.874;9.154;2023-03-07T00:31:31;24.67;;;10.00;;
71464;SDS011;59274;49.874;9.154;2023-03-07T00:33:57;22.97;;;9.70;;
71464;SDS011;59274;49.874;9.154;2023-03-07T00:36:23;25.27;;;9.60;;
71464;SDS011;59274;49.874;9.154;2023-03-07T00:38:49;22.50;;;10.20;;
71464;SDS011;59274;49.874;9.154;2023-03-07T00:41:15;25.50;;;10.20;;
71464;SDS011;59274;49.874;9.154;2023-03-07T00:43:43;22.67;;;9.20;;
71464;SDS011;59274;49.874;9.154;2023-03-07T00:46:11;23.45;;;10.30;;
71464;SDS011;59274;49.874;9.154;2023-03-07T00:48:37;22.25;;;9.65;;
71464;SDS011;59274;49.874;9.154;2023-03-07T00:51:04;23.52;;;9.02;;
71464;SDS011;59274;49.874;9.154;2023-03-07T00:53:32;23.40;;;9.13;;
71464;SDS011;59274;49.874;9.154;2023-03-07T00:56:04;25.40;;;10.25;;
71464;SDS011;59274;49.874;9.154;2023-03-07T00:58:33;23.83;;;9.57;;
71464;SDS011;59274;49.874;9.154;2023-03-07T01:01:00;23.48;;;9.68;;
71464;SDS011;59274;49.874;9.154;2023-03-07T01:03:26;25.35;;;10.13;;
71464;SDS011;59274;49.874;9.154;2023-03-07T01:05:52;26.77;;;9.97;;
71464;SDS011;59274;49.874;9.154;2023-03-07T01:08:19;26.88;;;10.38;;
71464;SDS011;59274;49.874;9.154;2023-03-07T01:10:45;26.90;;;10.30;;
71464;SDS011;59274;49.874;9.154;2023-03-07T01:13:12;26.00;;;11.23;;
71464;SDS011;59274;49.874;9.154;2023-03-07T01:15:38;24.70;;;10.68;;
71464;SDS011;59274;49.874;9.154;2023-03-07T01:18:04;24.60;;;9.93;;
71464;SDS011;59274;49.874;9.154;2023-03-07T01:20:31;24.50;;;10.10;;
71464;SDS011;59274;49.874;9.154;2023-03-07T01:22:58;27.25;;;10.55;;
71464;SDS011;59274;49.874;9.154;2023-03-07T01:25:23;26.30;;;10.68;;
71464;SDS011;59274;49.874;9.154;2023-03-07T01:27:52;25.80;;;11.60;;
71464;SDS011;59274;49.874;9.154;2023-03-07T01:30:22;26.38;;;11.55;;
71464;SDS011;59274;49.874;9.154;2023-03-07T01:32:55;26.13;;;10.73;;
71464;SDS011;59274;49.874;9.154;2023-03-07T01:35:22;25.90;;;10.85;;
71464;SDS011;59274;49.874;9.154;2023-03-07T01:37:51;28.15;;;10.90;;
71464;SDS011;59274;49.874;9.154;2023-03-07T01:40:18;26.55;;;11.20;;
71464;SDS011;59274;49.874;9.154;2023-03-07T01:42:44;28.10;;;11.00;;
71464;SDS011;59274;49.874;9.154;2023-03-07T01:47:37;25.67;;;10.50;;
71464;SDS011;59274;49.874;9.154;2023-03-07T01:50:13;25.73;;;11.30;;
71464;SDS011;59274;49.874;9.154;2023-03-07T01:52:42;29.67;;;11.38;;
71464;SDS011;59274;49.874;9.154;2023-03-07T01:55:21;25.20;;;10.80;;
71464;SDS011;59274;49.874;9.154;2023-03-07T01:57:50;26.23;;;10.18;;
71464;SDS011;59274;49.874;9.154;2023-03-07T02:00:19;28.83;;;11.18;;
71464;SDS011;59274;49.874;9.154;2023-03-07T02:05:58;25.63;;;10.57;;
71464;SDS011;59274;49.874;9.154;2023-03-07T02:08:27;29.67;;;11.40;;
71464;SDS011;59274;49.874;9.154;2023-03-07T02:10:54;24.63;;;10.48;;
71464;SDS011;59274;49.874;9.154;2023-03-07T02:13:20;25.17;;;11.03;;
71464;SDS011;59274;49.874;9.154;2023-03-07T02:15:46;31.33;;;11.30;;
71464;SDS011;59274;49.874;9.154;2023-03-07T02:18:14;26.08;;;10.98;;
71464;SDS011;59274;49.874;9.154;2023-03-07T02:24:05;28.58;;;11.10;;
71464;SDS011;59274;49.874;9.154;2023-03-07T02:26:43;29.85;;;12.15;;
71464;SDS011;59274;49.874;9.154;2023-03-07T02:29:09;28.08;;;10.98;;
71464;SDS011;59274;49.874;9.154;2023-03-07T02:31:37;28.05;;;10.85;;
71464;SDS011;59274;49.874;9.154;2023-03-07T02:34:02;26.97;;;11.13;;
71464;SDS011;59274;49.874;9.154;2023-03-07T02:36:29;26.73;;;10.70;;
71464;SDS011;59274;49.874;9.154;2023-03-07T02:38:57;30.30;;;11.32;;
71464;SDS011;59274;49.874;9.154;2023-03-07T02:41:27;28.95;;;11.43;;
71464;SDS011;59274;49.874;9.154;2023-03-07T02:43:56;26.03;;;11.87;;
71464;SDS011;59274;49.874;9.154;2023-03-07T02:46:21;27.50;;;12.20;;
71464;SDS011;59274;49.874;9.154;2023-03-07T02:48:47;26.50;;;10.60;;
71464;SDS011;59274;49.874;9.154;2023-03-07T02:51:12;26.80;;;11.23;;
71464;SDS011;59274;49.874;9.154;2023-03-07T02:53:38;27.97;;;11.93;;
71464;SDS011;59274;49.874;9.154;2023-03-07T02:56:04;27.45;;;12.00;;
71464;SDS011;59274;49.874;9.154;2023-03-07T02:58:30;29.33;;;12.38;;
71464;SDS011;59274;49.874;9.154;2023-03-07T03:00:55;27.50;;;12.27;;
71464;SDS011;59274;49.874;9.154;2023-03-07T03:03:21;26.80;;;11.17;;
71464;SDS011;59274;49.874;9.154;2023-03-07T03:05:46;29.33;;;11.63;;
71464;SDS011;59274;49.874;9.154;2023-03-07T03:08:11;29.67;;;12.03;;
71464;SDS011;59274;49.874;9.154;2023-03-07T03:10:37;31.02;;;12.68;;
71464;SDS011;59274;49.874;9.154;2023-03-07T03:13:03;28.92;;;12.88;;
71464;SDS011;59274;49.874;9.154;2023-03-07T03:15:28;28.23;;;12.75;;
71464;SDS011;59274;49.874;9.154;2023-03-07T03:17:54;30.73;;;12.63;;
71464;SDS011;59274;49.874;9.154;2023-03-07T03:20:19;28.20;;;12.40;;
71464;SDS011;59274;49.874;9.154;2023-03-07T03:22:45;30.75;;;12.00;;
71464;SDS011;59274;49.874;9.154;2023-03-07T03:25:11;28.37;;;12.33;;
71464;SDS011;59274;49.874;9.154;2023-03-07T03:27:38;31.20;;;13.13;;
71464;SDS011;59274;49.874;9.154;2023-03-07T03:30:04;30.17;;;12.17;;
71464;SDS011;59274;49.874;9.154;2023-03-07T03:32:31;31.88;;;12.48;;
71464;SDS011;59274;49.874;9.154;2023-03-07T03:34:57;29.85;;;12.57;;
71464;SDS011;59274;49.874;9.154;2023-03-07T03:37:23;27.73;;;12.07;;
71464;SDS011;59274;49.874;9.154;2023-03-07T03:39:48;30.85;;;12.20;;
71464;SDS011;59274;49.874;9.154;2023-03-07T03:42:14;28.00;;;12.80;;
71464;SDS011;59274;49.874;9.154;2023-03-07T03:44:39;26.53;;;12.00;;
71464;SDS011;59274;49.874;9.154;2023-03-07T03:47:04;28.50;;;11.73;;
71464;SDS011;59274;49.874;9.154;2023-03-07T03:49:30;26.57;;;11.73;;
71464;SDS011;59274;49.874;9.154;2023-03-07T03:51:56;29.15;;;11.50;;
71464;SDS011;59274;49.874;9.154;2023-03-07T03:54:21;27.77;;;11.83;;
71464;SDS011;59274;49.874;9.154;2023-03-07T03:56:47;25.33;;;10.33;;
71464;SDS011;59274;49.874;9.154;2023-03-07T03:59:12;28.67;;;11.35;;
71464;SDS011;59274;49.874;9.154;2023-03-07T04:01:37;23.40;;;10.17;;
71464;SDS011;59274;49.874;9.154;2023-03-07T04:04:03;26.97;;;10.60;;
71464;SDS011;59274;49.874;9.154;2023-03-07T04:06:29;25.40;;;11.10;;
71464;SDS011;59274;49.874;9.154;2023-03-07T04:08:57;23.85;;;10.48;;
71464;SDS011;59274;49.874;9.154;2023-03-07T04:11:23;26.30;;;11.30;;
71464;SDS011;59274;49.874;9.154;2023-03-07T04:13:49;26.20;;;10.37;;
71464;SDS011;59274;49.874;9.154;2023-03-07T04:16:15;24.52;;;10.30;;
71464;SDS011;59274;49.874;9.154;2023-03-07T04:18:41;26.27;;;10.85;;
71464;SDS011;59274;49.874;9.154;2023-03-07T04:21:07;25.47;;;10.87;;
71464;SDS011;59274;49.874;9.154;2023-03-07T04:23:35;28.80;;;10.05;;
71464;SDS011;59274;49.874;9.154;2023-03-07T04:26:01;22.27;;;9.63;;
71464;SDS011;59274;49.874;9.154;2023-03-07T04:28:35;21.60;;;9.43;;
71464;SDS011;59274;49.874;9.154;2023-03-07T04:31:22;28.95;;;10.52;;
71464;SDS011;59274;49.874;9.154;2023-03-07T04:33:50;22.08;;;9.88;;
71464;SDS011;59274;49.874;9.154;2023-03-07T04:36:17;23.33;;;9.90;;
71464;SDS011;59274;49.874;9.154;2023-03-07T04:38:43;25.47;;;10.73;;
71464;SDS011;59274;49.874;9.154;2023-03-07T04:41:17;22.83;;;10.05;;
71464;SDS011;59274;49.874;9.154;2023-03-07T04:43:47;25.88;;;10.10;;
71464;SDS011;59274;49.874;9.154;2023-03-07T04:46:13;19.77;;;9.20;;
71464;SDS011;59274;49.874;9.154;2023-03-07T04:48:40;18.52;;;9.50;;
71464;SDS011;59274;49.874;9.154;2023-03-07T04:51:06;24.13;;;10.68;;
71464;SDS011;59274;49.874;9.154;2023-03-07T04:53:32;25.33;;;10.00;;
71464;SDS011;59274;49.874;9.154;2023-03-07T04:55:58;23.05;;;9.65;;
71464;SDS011;59274;49.874;9.154;2023-03-07T04:58:27;23.35;;;9.23;;
71464;SDS011;59274;49.874;9.154;2023-03-07T05:00:54;23.42;;;9.63;;
71464;SDS011;59274;49.874;9.154;2023-03-07T05:03:23;24.80;;;9.75;;
71464;SDS011;59274;49.874;9.154;2023-03-07T05:05:52;23.75;;;9.45;;
71464;SDS011;59274;49.874;9.154;2023-03-07T05:08:18;24.53;;;9.90;;
71464;SDS011;59274;49.874;9.154;2023-03-07T05:10:44;23.20;;;10.10;;
71464;SDS011;59274;49.874;9.154;2023-03-07T05:13:10;24.00;;;9.45;;
71464;SDS011;59274;49.874;9.154;2023-03-07T05:15:36;24.00;;;10.27;;
71464;SDS011;59274;49.874;9.154;2023-03-07T05:18:01;21.10;;;9.25;;
71464;SDS011;59274;49.874;9.154;2023-03-07T05:20:27;25.03;;;9.40;;
71464;SDS011;59274;49.874;9.154;2023-03-07T05:22:54;25.60;;;10.73;;
71464;SDS011;59274;49.874;9.154;2023-03-07T05:25:20;24.77;;;9.63;;
71464;SDS011;59274;49.874;9.154;2023-03-07T05:27:46;22.23;;;10.20;;
71464;SDS011;59274;49.874;9.154;2023-03-07T05:30:12;25.30;;;10.57;;
71464;SDS011;59274;49.874;9.154;2023-03-07T05:32:38;23.58;;;9.50;;
71464;SDS011;59274;49.874;9.154;2023-03-07T05:35:04;22.98;;;9.80;;
71464;SDS011;59274;49.874;9.154;2023-03-07T05:37:30;26.27;;;11.00;;
71464;SDS011;59274;49.874;9.154;2023-03-07T05:39:55;22.48;;;9.80;;
71464;SDS011;59274;49.874;9.154;2023-03-07T05:42:21;24.70;;;10.90;;
71464;SDS011;59274;49.874;9.154;2023-03-07T05:44:46;21.50;;;10.20;;
71464;SDS011;59274;49.874;9.154;2023-03-07T05:47:11;23.90;;;9.47;;
71464;SDS011;59274;49.874;9.154;2023-03-07T05:49:37;23.57;;;10.43;;
71464;SDS011;59274;49.874;9.154;2023-03-07T05:52:02;25.65;;;10.48;;
71464;SDS011;59274;49.874;9.154;2023-03-07T05:54:28;24.50;;;10.95;;
71464;SDS011;59274;49.874;9.154;2023-03-07T05:56:53;24.43;;;9.97;;
71464;SDS011;59274;49.874;9.154;2023-03-07T05:59:19;23.20;;;9.50;;
71464;SDS011;59274;49.874;9.154;2023-03-07T06:01:44;22.37;;;10.37;;
71464;SDS011;59274;49.874;9.154;2023-03-07T06:04:10;24.02;;;9.77;;
71464;SDS011;59274;49.874;9.154;2023-03-07T06:06:35;21.97;;;9.43;;
71464;SDS011;59274;49.874;9.154;2023-03-07T06:09:01;27.17;;;10.60;;
71464;SDS011;59274;49.874;9.154;2023-03-07T06:11:27;24.42;;;10.15;;
71464;SDS011;59274;49.874;9.154;2023-03-07T06:13:53;23.03;;;9.60;;
71464;SDS011;59274;49.874;9.154;2023-03-07T06:16:19;25.73;;;10.95;;
71464;SDS011;59274;49.874;9.154;2023-03-07T06:18:45;24.60;;;9.73;;
71464;SDS011;59274;49.874;9.154;2023-03-07T06:21:12;23.03;;;10.20;;
71464;SDS011;59274;49.874;9.154;2023-03-07T06:23:40;21.63;;;9.90;;
71464;SDS011;59274;49.874;9.154;2023-03-07T06:26:05;24.37;;;9.50;;
71464;SDS011;59274;49.874;9.154;2023-03-07T06:28:32;23.05;;;10.40;;
71464;SDS011;59274;49.874;9.154;2023-03-07T06:30:58;25.70;;;9.60;;
71464;SDS011;59274;49.874;9.154;2023-03-07T06:33:23;21.05;;;9.68;;
71464;SDS011;59274;49.874;9.154;2023-03-07T06:35:49;19.97;;;9.47;;
71464;SDS011;59274;49.874;9.154;2023-03-07T06:38:15;22.07;;;9.60;;
71464;SDS011;59274;49.874;9.154;2023-03-07T06:40:41;19.98;;;8.82;;
71464;SDS011;59274;49.874;9.154;2023-03-07T06:43:07;25.17;;;10.02;;
71464;SDS011;59274;49.874;9.154;2023-03-07T06:45:35;22.30;;;8.30;;
71464;SDS011;59274;49.874;9.154;2023-03-07T06:48:01;20.08;;;8.93;;
71464;SDS011;59274;49.874;9.154;2023-03-07T06:50:27;19.60;;;9.20;;
71464;SDS011;59274;49.874;9.154;2023-03-07T06:52:52;21.67;;;8.93;;
71464;SDS011;59274;49.874;9.154;2023-03-07T06:55:17;22.03;;;9.23;;
71464;SDS011;59274;49.874;9.154;2023-03-07T06:57:43;23.17;;;8.83;;
71464;SDS011;59274;49.874;9.154;2023-03-07T07:00:09;26.95;;;9.38;;
71464;SDS011;59274;49.874;9.154;2023-03-07T07:02:35;23.30;;;9.67;;
71464;SDS011;59274;49.874;9.154;2023-03-07T07:05:00;21.13;;;8.65;;
71464;SDS011;59274;49.874;9.154;2023-03-07T07:07:27;19.40;;;8.73;;
71464;SDS011;59274;49.874;9.154;2023-03-07T07:09:53;19.23;;;8.65;;
71464;SDS011;59274;49.874;9.154;2023-03-07T07:12:18;22.77;;;9.00;;
71464;SDS011;59274;49.874;9.154;2023-03-07T07:14:44;19.67;;;8.40;;
71464;SDS011;59274;49.874;9.154;2023-03-07T07:17:09;20.63;;;8.97;;
71464;SDS011;59274;49.874;9.154;2023-03-07T07:19:35;20.20;;;9.50;;
71464;SDS011;59274;49.874;9.154;2023-03-07T07:22:03;21.27;;;9.25;;
71464;SDS011;59274;49.874;9.154;2023-03-07T07:24:28;19.40;;;8.67;;
71464;SDS011;59274;49.874;9.154;2023-03-07T07:26:54;19.42;;;8.38;;
71464;SDS011;59274;49.874;9.154;2023-03-07T07:29:20;18.90;;;7.83;;
71464;SDS011;59274;49.874;9.154;2023-03-07T07:31:45;18.80;;;8.15;;
71464;SDS011;59274;49.874;9.154;2023-03-07T07:34:11;17.53;;;8.07;;
71464;SDS011;59274;49.874;9.154;2023-03-07T07:36:36;18.17;;;8.07;;
71464;SDS011;59274;49.874;9.154;2023-03-07T07:39:05;21.43;;;8.73;;
71464;SDS011;59274;49.874;9.154;2023-03-07T07:41:31;22.98;;;8.48;;
71464;SDS011;59274;49.874;9.154;2023-03-07T07:43:58;19.38;;;8.10;;
71464;SDS011;59274;49.874;9.154;2023-03-07T07:46:23;18.57;;;8.30;;
71464;SDS011;59274;49.874;9.154;2023-03-07T07:48:48;17.87;;;8.03;;
71464;SDS011;59274;49.874;9.154;2023-03-07T07:51:14;17.13;;;7.85;;
71464;SDS011;59274;49.874;9.154;2023-03-07T07:53:39;20.23;;;8.73;;
71464;SDS011;59274;49.874;9.154;2023-03-07T07:56:05;20.97;;;8.77;;
71464;SDS011;59274;49.874;9.154;2023-03-07T07:58:31;17.38;;;7.85;;
71464;SDS011;59274;49.874;9.154;2023-03-07T08:00:56;18.47;;;8.77;;
71464;SDS011;59274;49.874;9.154;2023-03-07T08:03:22;18.90;;;7.77;;
71464;SDS011;59274;49.874;9.154;2023-03-07T08:05:47;16.73;;;7.70;;
71464;SDS011;59274;49.874;9.154;2023-03-07T08:08:17;17.60;;;7.57;;
71464;SDS011;59274;49.874;9.154;2023-03-07T08:10:46;16.23;;;7.60;;
71464;SDS011;59274;49.874;9.154;2023-03-07T08:13:13;20.05;;;8.32;;
71464;SDS011;59274;49.874;9.154;2023-03-07T08:15:39;16.63;;;7.88;;
71464;SDS011;59274;49.874;9.154;2023-03-07T08:18:06;20.48;;;8.38;;
71464;SDS011;59274;49.874;9.154;2023-03-07T08:20:32;18.13;;;7.60;;
71464;SDS011;59274;49.874;9.154;2023-03-07T08:22:58;16.90;;;7.03;;
71464;SDS011;59274;49.874;9.154;2023-03-07T08:25:23;15.00;;;7.45;;
71464;SDS011;59274;49.874;9.154;2023-03-07T08:27:50;18.60;;;8.03;;
71464;SDS011;59274;49.874;9.154;2023-03-07T08:30:26;17.17;;;7.30;;
71464;SDS011;59274;49.874;9.154;2023-03-07T08:32:53;14.73;;;6.90;;
71464;SDS011;59274;49.874;9.154;2023-03-07T08:35:20;19.33;;;7.77;;
71464;SDS011;59274;49.874;9.154;2023-03-07T08:37:46;17.05;;;6.70;;
71464;SDS011;59274;49.874;9.154;2023-03-07T08:40:13;17.35;;;7.00;;
71464;SDS011;59274;49.874;9.154;2023-03-07T08:42:40;17.02;;;6.88;;
71464;SDS011;59274;49.874;9.154;2023-03-07T08:45:09;14.65;;;7.60;;
71464;SDS011;59274;49.874;9.154;2023-03-07T08:47:34;14.10;;;6.47;;
71464;SDS011;59274;49.874;9.154;2023-03-07T08:50:00;16.60;;;7.18;;
71464;SDS011;59274;49.874;9.154;2023-03-07T08:52:25;17.02;;;7.00;;
71464;SDS011;59274;49.874;9.154;2023-03-07T08:54:51;15.43;;;6.00;;
71464;SDS011;59274;49.874;9.154;2023-03-07T08:57:16;15.63;;;7.00;;
71464;SDS011;59274;49.874;9.154;2023-03-07T08:59:42;15.23;;;6.43;;
71464;SDS011;59274;49.874;9.154;2023-03-07T09:02:09;15.25;;;6.43;;
71464;SDS011;59274;49.874;9.154;2023-03-07T09:04:35;14.03;;;6.73;;
71464;SDS011;59274;49.874;9.154;2023-03-07T09:07:00;17.10;;;6.55;;
71464;SDS011;59274;49.874;9.154;2023-03-07T09:09:26;15.40;;;6.43;;
71464;SDS011;59274;49.874;9.154;2023-03-07T09:11:52;14.63;;;6.53;;
71464;SDS011;59274;49.874;9.154;2023-03-07T09:14:18;13.57;;;6.03;;
71464;SDS011;59274;49.874;9.154;2023-03-07T09:16:43;15.07;;;6.37;;
71464;SDS011;59274;49.874;9.154;2023-03-07T09:19:09;13.77;;;5.73;;
71464;SDS011;59274;49.874;9.154;2023-03-07T09:21:34;13.67;;;5.80;;
71464;SDS011;59274;49.874;9.154;2023-03-07T09:24:00;13.07;;;6.18;;
71464;SDS011;59274;49.874;9.154;2023-03-07T09:26:25;12.17;;;5.43;;
71464;SDS011;59274;49.874;9.154;2023-03-07T09:28:50;12.80;;;5.80;;
71464;SDS011;59274;49.874;9.154;2023-03-07T09:31:16;12.37;;;5.80;;
71464;SDS011;59274;49.874;9.154;2023-03-07T09:33:41;14.53;;;6.00;;
71464;SDS011;59274;49.874;9.154;2023-03-07T09:36:08;12.70;;;6.07;;
71464;SDS011;59274;49.874;9.154;2023-03-07T09:38:36;13.25;;;5.55;;
71464;SDS011;59274;49.874;9.154;2023-03-07T09:41:04;13.60;;;6.15;;
71464;SDS011;59274;49.874;9.154;2023-03-07T09:43:43;13.23;;;5.25;;
71464;SDS011;59274;49.874;9.154;2023-03-07T09:49:08;17.10;;;5.63;;
71464;SDS011;59274;49.874;9.154;2023-03-07T09:52:06;10.95;;;4.68;;
71464;SDS011;59274;49.874;9.154;2023-03-07T09:54:39;11.73;;;5.05;;
71464;SDS011;59274;49.874;9.154;2023-03-07T09:57:22;14.18;;;5.47;;
71464;SDS011;59274;49.874;9.154;2023-03-07T09:59:55;12.63;;;4.87;;
71464;SDS011;59274;49.874;9.154;2023-03-07T10:07:38;11.40;;;4.85;;
71464;SDS011;59274;49.874;9.154;2023-03-07T10:10:05;11.30;;;4.72;;
71464;SDS011;59274;49.874;9.154;2023-03-07T10:18:14;12.10;;;5.30;;
71464;SDS011;59274;49.874;9.154;2023-03-07T10:20:55;11.68;;;5.38;;
71464;SDS011;59274;49.874;9.154;2023-03-07T10:23:41;12.60;;;4.90;;
71464;SDS011;59274;49.874;9.154;2023-03-07T10:26:33;10.80;;;4.82;;
71464;SDS011;59274;49.874;9.154;2023-03-07T10:29:11;11.32;;;5.55;;
71464;SDS011;59274;49.874;9.154;2023-03-07T10:31:40;12.73;;;4.57;;
71464;SDS011;59274;49.874;9.154;2023-03-07T10:34:22;12.20;;;4.78;;
71464;SDS011;59274;49.874;9.154;2023-03-07T10:36:51;11.43;;;5.13;;
71464;SDS011;59274;49.874;9.154;2023-03-07T10:41:45;11.13;;;4.50;;
71464;SDS011;59274;49.874;9.154;2023-03-07T10:44:13;13.23;;;5.32;;
71464;SDS011;59274;49.874;9.154;2023-03-07T10:46:42;12.23;;;5.17;;
71464;SDS011;59274;49.874;9.154;2023-03-07T10:49:13;11.32;;;4.80;;
71464;SDS011;59274;49.874;9.154;2023-03-07T10:52:01;11.15;;;4.88;;
71464;SDS011;59274;49.874;9.154;2023-03-07T10:54:34;10.38;;;4.25;;
71464;SDS011;59274;49.874;9.154;2023-03-07T10:57:05;11.02;;;4.90;;
71464;SDS011;59274;49.874;9.154;2023-03-07T10:59:32;10.20;;;4.70;;
71464;SDS011;59274;49.874;9.154;2023-03-07T11:02:00;11.07;;;4.97;;
71464;SDS011;59274;49.874;9.154;2023-03-07T11:04:27;10.05;;;4.30;;
71464;SDS011;59274;49.874;9.154;2023-03-07T11:07:23;11.48;;;4.88;;
71464;SDS011;59274;49.874;9.154;2023-03-07T11:09:51;13.48;;;4.80;;
71464;SDS011;59274;49.874;9.154;2023-03-07T11:12:21;13.53;;;4.77;;
71464;SDS011;59274;49.874;9.154;2023-03-07T11:14:49;12.85;;;4.82;;
71464;SDS011;59274;49.874;9.154;2023-03-07T11:17:26;11.05;;;4.63;;
71464;SDS011;59274;49.874;9.154;2023-03-07T11:20:16;9.98;;;4.32;;
71464;SDS011;59274;49.874;9.154;2023-03-07T11:22:48;13.53;;;4.90;;
71464;SDS011;59274;49.874;9.154;2023-03-07T11:25:24;11.55;;;4.80;;
71464;SDS011;59274;49.874;9.154;2023-03-07T11:27:54;11.73;;;5.32;;
71464;SDS011;59274;49.874;9.154;2023-03-07T11:30:42;12.00;;;4.78;;
71464;SDS011;59274;49.874;9.154;2023-03-07T11:36:07;11.40;;;4.57;;
71464;SDS011;59274;49.874;9.154;2023-03-07T11:41:27;12.38;;;5.43;;
71464;SDS011;59274;49.874;9.154;2023-03-07T11:46:36;11.30;;;5.15;;
71464;SDS011;59274;49.874;9.154;2023-03-07T12:11:14;11.20;;;4.93;;
71464;SDS011;59274;49.874;9.154;2023-03-07T12:16:45;10.90;;;5.00;;
71464;SDS011;59274;49.874;9.154;2023-03-07T12:19:28;11.50;;;4.65;;
71464;SDS011;59274;49.874;9.154;2023-03-07T12:27:22;10.07;;;4.30;;
71464;SDS011;59274;49.874;9.154;2023-03-07T12:29:58;10.77;;;4.27;;
71464;SDS011;59274;49.874;9.154;2023-03-07T12:32:28;10.23;;;4.05;;
71464;SDS011;59274;49.874;9.154;2023-03-07T12:34:58;9.38;;;4.20;;
71464;SDS011;59274;49.874;9.154;2023-03-07T12:37:29;11.75;;;4.55;;
71464;SDS011;59274;49.874;9.154;2023-03-07T12:40:19;10.55;;;4.30;;
71464;SDS011;59274;49.874;9.154;2023-03-07T12:42:51;10.00;;;4.20;;
71464;SDS011;59274;49.874;9.154;2023-03-07T12:45:23;9.88;;;4.30;;
71464;SDS011;59274;49.874;9.154;2023-03-07T12:47:56;12.35;;;4.72;;
71464;SDS011;59274;49.874;9.154;2023-03-07T13:04:35;10.73;;;4.55;;
71464;SDS011;59274;49.874;9.154;2023-03-07T13:07:12;10.68;;;4.43;;
71464;SDS011;59274;49.874;9.154;2023-03-07T13:09:42;11.07;;;3.93;;
71464;SDS011;59274;49.874;9.154;2023-03-07T13:14:54;11.35;;;4.10;;
71464;SDS011;59274;49.874;9.154;2023-03-07T13:43:30;9.88;;;4.35;;
71464;SDS011;59274;49.874;9.154;2023-03-07T13:45:56;10.82;;;4.10;;
71464;SDS011;59274;49.874;9.154;2023-03-07T13:53:14;12.07;;;4.57;;
71464;SDS011;59274;49.874;9.154;2023-03-07T13:55:47;9.65;;;3.80;;
71464;SDS011;59274;49.874;9.154;2023-03-07T13:58:29;11.17;;;4.37;;
71464;SDS011;59274;49.874;9.154;2023-03-07T14:03:40;12.80;;;4.28;;
71464;SDS011;59274;49.874;9.154;2023-03-07T14:06:47;9.90;;;4.35;;
71464;SDS011;59274;49.874;9.154;2023-03-07T14:09:07;12.27;;;4.57;;
71464;SDS011;59274;49.874;9.154;2023-03-07T14:20:29;13.75;;;5.50;;
71464;SDS011;59274;49.874;9.154;2023-03-07T14:25:47;13.70;;;5.63;;
71464;SDS011;59274;49.874;9.154;2023-03-07T14:28:19;12.57;;;4.60;;
71464;SDS011;59274;49.874;9.154;2023-03-07T14:30:56;14.02;;;6.10;;
71464;SDS011;59274;49.874;9.154;2023-03-07T14:33:36;13.05;;;5.50;;
71464;SDS011;59274;49.874;9.154;2023-03-07T14:36:13;11.57;;;4.68;;
71464;SDS011;59274;49.874;9.154;2023-03-07T14:38:43;11.60;;;4.67;;
71464;SDS011;59274;49.874;9.154;2023-03-07T14:43:47;12.13;;;4.20;;
71464;SDS011;59274;49.874;9.154;2023-03-07T14:49:19;10.30;;;4.55;;
71464;SDS011;59274;49.874;9.154;2023-03-07T14:51:40;12.35;;;4.50;;
71464;SDS011;59274;49.874;9.154;2023-03-07T14:54:16;9.82;;;4.00;;
71464;SDS011;59274;49.874;9.154;2023-03-07T14:56:43;9.90;;;4.40;;
71464;SDS011;59274;49.874;9.154;2023-03-07T14:59:11;10.68;;;4.40;;
71464;SDS011;59274;49.874;9.154;2023-03-07T15:01:38;10.85;;;4.63;;
71464;SDS011;59274;49.874;9.154;2023-03-07T15:04:26;10.45;;;4.53;;
71464;SDS011;59274;49.874;9.154;2023-03-07T15:06:54;9.32;;;4.07;;
71464;SDS011;59274;49.874;9.154;2023-03-07T15:09:21;9.60;;;4.23;;
71464;SDS011;59274;49.874;9.154;2023-03-07T15:11:49;9.25;;;4.15;;
71464;SDS011;59274;49.874;9.154;2023-03-07T15:14:23;9.63;;;4.45;;
71464;SDS011;59274;49.874;9.154;2023-03-07T15:17:06;11.00;;;4.78;;
71464;SDS011;59274;49.874;9.154;2023-03-07T15:19:48;9.67;;;4.73;;
71464;SDS011;59274;49.874;9.154;2023-03-07T15:22:20;11.45;;;5.10;;
71464;SDS011;59274;49.874;9.154;2023-03-07T15:24:49;12.90;;;4.80;;
71464;SDS011;59274;49.874;9.154;2023-03-07T15:27:25;13.70;;;4.93;;
71464;SDS011;59274;49.874;9.154;2023-03-07T15:29:55;13.35;;;6.43;;
71464;SDS011;59274;49.874;9.154;2023-03-07T15:37:30;12.77;;;5.70;;
71464;SDS011;59274;49.874;9.154;2023-03-07T15:39:58;12.52;;;5.43;;
71464;SDS011;59274;49.874;9.154;2023-03-07T15:42:47;16.20;;;7.00;;
71464;SDS011;59274;49.874;9.154;2023-03-07T15:45:31;11.13;;;5.65;;
71464;SDS011;59274;49.874;9.154;2023-03-07T15:47:58;12.57;;;5.10;;
71464;SDS011;59274;49.874;9.154;2023-03-07T15:50:26;12.77;;;4.75;;
71464;SDS011;59274;49.874;9.154;2023-03-07T15:52:55;12.57;;;4.65;;
71464;SDS011;59274;49.874;9.154;2023-03-07T15:55:25;12.18;;;5.13;;
71464;SDS011;59274;49.874;9.154;2023-03-07T15:57:52;11.48;;;4.90;;
71464;SDS011;59274;49.874;9.154;2023-03-07T16:00:31;14.93;;;4.90;;
71464;SDS011;59274;49.874;9.154;2023-03-07T16:05:53;11.50;;;4.88;;
71464;SDS011;59274;49.874;9.154;2023-03-07T16:08:20;12.43;;;4.50;;
71464;SDS011;59274;49.874;9.154;2023-03-07T16:13:21;11.40;;;4.40;;
71464;SDS011;59274;49.874;9.154;2023-03-07T16:15:57;10.95;;;4.57;;
71464;SDS011;59274;49.874;9.154;2023-03-07T16:18:31;10.32;;;4.25;;
71464;SDS011;59274;49.874;9.154;2023-03-07T16:20:57;11.90;;;5.60;;
71464;SDS011;59274;49.874;9.154;2023-03-07T16:23:23;12.35;;;4.43;;
71464;SDS011;59274;49.874;9.154;2023-03-07T16:25:49;12.00;;;4.13;;
71464;SDS011;59274;49.874;9.154;2023-03-07T16:28:14;9.33;;;3.70;;
71464;SDS011;59274;49.874;9.154;2023-03-07T16:30:41;8.50;;;3.40;;
71464;SDS011;59274;49.874;9.154;2023-03-07T16:33:10;10.10;;;4.10;;
71464;SDS011;59274;49.874;9.154;2023-03-07T16:35:37;8.82;;;3.65;;
71464;SDS011;59274;49.874;9.154;2023-03-07T16:38:02;11.07;;;3.93;;
71464;SDS011;59274;49.874;9.154;2023-03-07T16:40:28;9.07;;;3.90;;
71464;SDS011;59274;49.874;9.154;2023-03-07T16:42:55;12.48;;;3.97;;
71464;SDS011;59274;49.874;9.154;2023-03-07T16:45:22;12.77;;;4.07;;
71464;SDS011;59274;49.874;9.154;2023-03-07T16:47:53;10.05;;;4.03;;
71464;SDS011;59274;49.874;9.154;2023-03-07T16:50:25;11.82;;;4.30;;
71464;SDS011;59274;49.874;9.154;2023-03-07T16:52:52;11.13;;;4.13;;
71464;SDS011;59274;49.874;9.154;2023-03-07T16:55:18;10.80;;;4.28;;
71464;SDS011;59274;49.874;9.154;2023-03-07T16:57:44;9.97;;;4.23;;
71464;SDS011;59274;49.874;9.154;2023-03-07T17:00:12;10.60;;;4.53;;
71464;SDS011;59274;49.874;9.154;2023-03-07T17:02:43;11.35;;;4.70;;